createdAt,value
2022-10-28T00:03:52.685Z,6.07
2022-10-28T00:07:54.794Z,6.13
2022-10-28T00:11:56.548Z,10.45
2022-10-28T00:16:11.041Z,6.83
2022-10-28T00:20:12.764Z,6.57
2022-10-28T00:24:14.561Z,6.90
2022-10-28T00:28:16.142Z,7.50
2022-10-28T00:32:19.527Z,7.47
2022-10-28T00:36:25.070Z,7.00
2022-10-28T00:40:26.672Z,6.90
2022-10-28T00:44:49.880Z,6.78
2022-10-28T00:49:00.041Z,7.82
2022-10-28T00:53:06.402Z,6.78
2022-10-28T00:57:13.977Z,7.85
2022-10-28T01:01:15.813Z,8.13
2022-10-28T01:05:22.461Z,8.13
2022-10-28T01:13:57.658Z,7.88
2022-10-28T01:18:07.601Z,7.30
2022-10-28T01:22:23.804Z,7.15
2022-10-28T01:26:44.488Z,7.43
2022-10-28T01:31:12.119Z,7.75
2022-10-28T01:35:57.534Z,7.18
2022-10-28T01:40:08.635Z,7.43
2022-10-28T01:45:01.112Z,8.07
2022-10-28T01:49:21.361Z,7.68
2022-10-28T01:53:27.179Z,7.47
2022-10-28T01:57:31.742Z,7.55
2022-10-28T02:01:34.496Z,7.82
2022-10-28T02:09:43.493Z,7.60
2022-10-28T02:14:12.534Z,6.68
2022-10-28T02:18:40.187Z,7.10
2022-10-28T02:23:08.444Z,7.95
2022-10-28T02:27:21.839Z,8.18
2022-10-28T02:31:30.172Z,7.88
2022-10-28T02:35:41.054Z,8.93
2022-10-28T02:39:46.387Z,8.93
2022-10-28T02:43:53.308Z,9.82
2022-10-28T02:48:00.240Z,8.73
2022-10-28T02:52:05.926Z,8.95
2022-10-28T02:56:10.061Z,8.40
2022-10-28T03:00:16.849Z,8.80
2022-10-28T03:04:18.585Z,10.00
2022-10-28T03:08:20.163Z,8.73
2022-10-28T03:12:21.691Z,8.68
2022-10-28T03:16:23.342Z,8.18
2022-10-28T03:20:25.338Z,7.65
2022-10-28T03:24:26.976Z,8.90
2022-10-28T03:28:28.577Z,8.00
2022-10-28T03:32:30.175Z,7.63
2022-10-28T03:36:31.880Z,7.03
2022-10-28T03:40:34.393Z,6.90
2022-10-28T03:44:36.037Z,7.28
2022-10-28T03:48:37.573Z,6.63
2022-10-28T03:52:39.242Z,7.10
2022-10-28T03:56:40.951Z,6.07
2022-10-28T04:00:42.541Z,6.78
2022-10-28T04:04:44.331Z,6.20
2022-10-28T04:08:45.897Z,6.25
2022-10-28T04:12:47.526Z,7.28
2022-10-28T04:16:49.173Z,7.60
2022-10-28T04:20:50.787Z,6.63
2022-10-28T04:24:54.764Z,7.90
2022-10-28T04:28:56.300Z,8.48
2022-10-28T04:32:57.859Z,8.18
2022-10-28T04:36:59.411Z,8.32
2022-10-28T04:41:01.064Z,7.47
2022-10-28T04:45:02.632Z,7.47
2022-10-28T04:49:04.259Z,7.28
2022-10-28T04:53:05.904Z,7.45
2022-10-28T04:57:07.505Z,8.23
2022-10-28T05:01:10.287Z,7.90
2022-10-28T05:09:13.659Z,6.68
2022-10-28T05:13:15.268Z,6.28
2022-10-28T05:17:17.127Z,7.43
2022-10-28T05:21:18.876Z,6.88
2022-10-28T05:25:22.133Z,6.80
2022-10-28T05:29:23.729Z,6.70
2022-10-28T05:33:25.443Z,6.60
2022-10-28T05:37:27.773Z,6.37
2022-10-28T05:41:29.369Z,6.80
2022-10-28T05:45:31.020Z,6.40
2022-10-28T05:49:33.319Z,6.70
2022-10-28T05:53:38.111Z,7.15
2022-10-28T05:57:39.748Z,6.93
2022-10-28T06:01:41.382Z,7.50
2022-10-28T06:05:44.771Z,8.43
2022-10-28T06:09:46.408Z,7.57
2022-10-28T06:13:46.972Z,7.27
2022-10-28T06:17:48.804Z,6.97
2022-10-28T06:21:50.350Z,7.10
2022-10-28T06:25:59.413Z,7.00
2022-10-28T06:30:01.119Z,6.68
2022-10-28T06:34:04.246Z,7.03
2022-10-28T06:38:09.288Z,6.93
2022-10-28T06:42:11.610Z,5.57
2022-10-28T06:46:13.298Z,6.63
2022-10-28T06:50:16.610Z,5.32
2022-10-28T06:54:18.470Z,5.88
2022-10-28T06:58:20.512Z,5.75
2022-10-28T07:02:22.694Z,6.30
2022-10-28T07:06:25.619Z,5.38
2022-10-28T07:10:27.344Z,6.15
2022-10-28T07:14:28.954Z,5.97
2022-10-28T07:18:30.945Z,5.60
2022-10-28T07:22:34.146Z,5.80
2022-10-28T07:26:35.809Z,5.13
2022-10-28T07:30:38.148Z,4.70
2022-10-28T07:34:39.763Z,5.35
2022-10-28T07:38:41.345Z,5.10
2022-10-28T07:42:42.966Z,4.68
2022-10-28T07:46:44.569Z,5.80
2022-10-28T07:50:46.176Z,4.93
2022-10-28T07:54:47.818Z,5.45
2022-10-28T07:58:50.258Z,5.28
2022-10-28T08:02:51.852Z,5.75
2022-10-28T08:10:55.870Z,6.65
2022-10-28T08:14:57.416Z,6.97
2022-10-28T08:18:59.141Z,7.80
2022-10-28T08:23:04.043Z,7.00
2022-10-28T08:27:08.224Z,6.82
2022-10-28T08:31:13.109Z,6.97
2022-10-28T08:35:15.123Z,6.32
2022-10-28T08:39:16.665Z,6.20
2022-10-28T08:43:57.168Z,6.30
2022-10-28T08:48:05.384Z,6.13
2022-10-28T08:52:28.361Z,6.22
2022-10-28T08:56:35.493Z,5.63
2022-10-28T09:00:40.251Z,6.10
2022-10-28T09:04:44.085Z,5.80
2022-10-28T09:08:50.087Z,7.07
2022-10-28T09:13:17.218Z,7.07
2022-10-28T09:17:21.297Z,5.72
2022-10-28T09:21:32.826Z,4.95
2022-10-28T09:25:48.901Z,5.50
2022-10-28T09:30:22.496Z,5.63
2022-10-28T09:34:39.685Z,5.18
2022-10-28T09:38:42.556Z,4.55
2022-10-28T09:43:00.593Z,4.60
2022-10-28T09:47:05.428Z,5.38
2022-10-28T09:51:22.489Z,6.25
2022-10-28T09:55:24.860Z,5.25
2022-10-28T09:59:26.519Z,5.93
2022-10-28T10:03:28.331Z,5.43
2022-10-28T10:07:43.470Z,5.37
2022-10-28T10:11:48.287Z,4.82
2022-10-28T10:15:55.125Z,5.38
2022-10-28T10:20:06.317Z,4.25
2022-10-28T10:24:27.978Z,3.50
2022-10-28T10:28:32.637Z,4.43
2022-10-28T10:32:34.406Z,4.53
2022-10-28T10:36:36.164Z,4.40
2022-10-28T10:40:48.221Z,4.10
2022-10-28T10:44:59.478Z,4.70
2022-10-28T10:49:16.723Z,4.57
2022-10-28T10:53:27.839Z,4.55
2022-10-28T10:57:31.135Z,3.70
2022-10-28T11:01:36.643Z,4.15
2022-10-28T11:05:40.131Z,3.53
2022-10-28T11:09:42.581Z,3.22
2022-10-28T11:13:46.362Z,3.40
2022-10-28T11:17:59.496Z,3.63
2022-10-28T11:22:29.235Z,3.15
2022-10-28T11:26:37.729Z,3.28
2022-10-28T11:30:54.141Z,2.90
2022-10-28T11:35:27.050Z,2.53
2022-10-28T11:40:07.129Z,2.20
2022-10-28T11:44:24.061Z,2.80
2022-10-28T11:48:59.028Z,2.83
2022-10-28T11:53:22.095Z,2.95
2022-10-28T11:57:39.139Z,2.45
2022-10-28T12:02:08.232Z,2.65
2022-10-28T12:06:28.749Z,2.45
2022-10-28T12:10:52.148Z,2.60
2022-10-28T12:15:15.661Z,2.78
2022-10-28T12:19:23.134Z,3.42
2022-10-28T12:23:26.217Z,2.95
2022-10-28T12:27:33.716Z,2.60
2022-10-28T12:31:44.583Z,2.58
2022-10-28T12:36:13.147Z,3.50
2022-10-28T12:40:43.882Z,2.42
2022-10-28T12:44:47.778Z,2.45
2022-10-28T12:48:59.310Z,3.38
2022-10-28T12:53:03.531Z,3.13
2022-10-28T12:57:13.158Z,2.67
2022-10-28T13:01:18.564Z,2.35
2022-10-28T13:05:25.141Z,2.25
2022-10-28T13:09:54.156Z,2.60
2022-10-28T13:14:13.510Z,2.97
2022-10-28T13:18:44.312Z,2.35
2022-10-28T13:23:11.452Z,2.92
2022-10-28T13:27:14.750Z,2.30
2022-10-28T13:31:17.166Z,2.75
2022-10-28T13:35:24.282Z,2.78
2022-10-28T13:39:42.163Z,3.30
2022-10-28T13:43:58.367Z,2.67
2022-10-28T13:48:37.757Z,3.00
2022-10-28T13:52:45.287Z,2.28
2022-10-28T13:56:49.799Z,3.65
2022-10-28T14:00:53.498Z,2.53
2022-10-28T14:05:05.618Z,2.60
2022-10-28T14:09:21.304Z,3.00
2022-10-28T14:13:23.332Z,2.65
2022-10-28T14:17:30.523Z,2.63
2022-10-28T14:21:48.207Z,2.72
2022-10-28T14:25:54.716Z,2.88
2022-10-28T14:29:56.189Z,3.13
2022-10-28T14:33:57.710Z,2.20
2022-10-28T14:38:20.195Z,3.20
2022-10-28T14:42:51.975Z,3.03
2022-10-28T14:47:08.721Z,2.65
2022-10-28T14:51:15.859Z,3.17
2022-10-28T14:55:24.986Z,3.00
2022-10-28T14:59:37.845Z,2.75
2022-10-28T15:03:39.919Z,3.35
2022-10-28T15:07:42.198Z,3.30
2022-10-28T15:12:07.373Z,3.22
2022-10-28T15:16:27.266Z,3.10
2022-10-28T15:20:32.011Z,2.80
2022-10-28T15:24:34.146Z,2.60
2022-10-28T15:28:37.162Z,3.30
2022-10-28T15:32:38.718Z,3.45
2022-10-28T15:36:40.552Z,3.92
2022-10-28T15:40:42.306Z,2.90
2022-10-28T15:44:44.921Z,2.90
2022-10-28T15:48:52.052Z,3.08
2022-10-28T15:53:14.839Z,2.85
2022-10-28T16:01:35.928Z,2.70
2022-10-28T16:05:37.548Z,2.50
2022-10-28T16:09:47.755Z,3.55
2022-10-28T16:13:50.024Z,2.90
2022-10-28T16:17:51.926Z,3.00
2022-10-28T16:21:53.824Z,3.15
2022-10-28T16:25:55.362Z,3.08
2022-10-28T16:29:57.022Z,3.38
2022-10-28T16:33:59.795Z,3.42
2022-10-28T16:38:01.528Z,3.65
2022-10-28T16:42:03.243Z,2.85
2022-10-28T16:46:04.922Z,3.05
2022-10-28T16:50:06.970Z,3.10
2022-10-28T16:54:08.548Z,3.80
2022-10-28T16:58:10.217Z,3.20
2022-10-28T17:02:19.961Z,2.78
2022-10-28T17:06:21.792Z,2.83
2022-10-28T17:10:24.438Z,3.13
2022-10-28T17:18:27.558Z,4.30
2022-10-28T17:22:29.326Z,3.20
2022-10-28T17:26:30.957Z,2.75
2022-10-28T17:30:32.627Z,3.20
2022-10-28T17:34:35.276Z,3.25
2022-10-28T17:42:38.704Z,3.20
2022-10-28T17:46:40.974Z,3.22
2022-10-28T17:50:44.210Z,3.10
2022-10-28T17:54:46.099Z,3.47
2022-10-28T17:58:47.833Z,3.43
2022-10-28T18:02:49.618Z,3.47
2022-10-28T18:06:51.272Z,3.17
2022-10-28T18:10:57.672Z,3.90
2022-10-28T18:14:59.311Z,4.00
2022-10-28T18:19:04.923Z,3.72
2022-10-28T18:23:06.551Z,3.30
2022-10-28T18:27:09.194Z,3.88
2022-10-28T18:35:14.275Z,3.92
2022-10-28T18:39:15.895Z,3.40
2022-10-28T18:43:17.674Z,4.78
2022-10-28T18:47:19.244Z,5.97
2022-10-28T18:51:20.976Z,4.55
2022-10-28T18:55:22.654Z,3.60
2022-10-28T18:59:24.393Z,4.03
2022-10-28T19:03:26.082Z,4.67
2022-10-28T19:07:27.690Z,5.13
2022-10-28T19:11:31.372Z,4.30
2022-10-28T19:15:33.179Z,4.57
2022-10-28T19:19:38.444Z,4.25
2022-10-28T19:23:41.847Z,4.35
2022-10-28T19:27:43.571Z,4.60
2022-10-28T19:31:45.184Z,3.60
2022-10-28T19:35:46.811Z,3.97
2022-10-28T19:39:50.873Z,4.30
2022-10-28T19:43:58.238Z,3.45
2022-10-28T19:48:01.892Z,4.28
2022-10-28T19:52:03.606Z,4.22
2022-10-28T19:56:05.782Z,3.72
2022-10-28T20:00:08.094Z,3.75
2022-10-28T20:04:13.320Z,4.45
2022-10-28T20:08:18.217Z,3.78
2022-10-28T20:12:19.984Z,4.28
2022-10-28T20:16:23.013Z,3.58
2022-10-28T20:20:24.676Z,3.40
2022-10-28T20:24:26.478Z,4.55
2022-10-28T20:28:30.167Z,4.00
2022-10-28T20:32:31.668Z,4.18
2022-10-28T20:36:39.174Z,4.35
2022-10-28T20:40:40.805Z,4.35
2022-10-28T20:44:42.333Z,4.65
2022-10-28T20:48:44.013Z,4.47
2022-10-28T20:52:45.624Z,4.75
2022-10-28T20:56:47.216Z,4.22
2022-10-28T21:00:50.998Z,5.32
2022-10-28T21:04:52.649Z,4.00
2022-10-28T21:08:54.699Z,4.72
2022-10-28T21:12:59.149Z,4.68
2022-10-28T21:17:01.732Z,3.83
2022-10-28T21:21:03.540Z,3.75
2022-10-28T21:25:05.632Z,4.63
2022-10-28T21:29:07.266Z,3.73
2022-10-28T21:33:09.479Z,4.35
2022-10-28T21:37:11.021Z,3.50
2022-10-28T21:41:19.939Z,4.28
2022-10-28T21:45:21.533Z,3.90
2022-10-28T21:49:24.216Z,3.95
2022-10-28T21:57:30.177Z,4.35
2022-10-28T22:01:32.996Z,4.28
2022-10-28T22:05:34.750Z,5.03
2022-10-28T22:09:37.520Z,4.63
2022-10-28T22:13:39.386Z,4.03
2022-10-28T22:17:40.948Z,4.47
2022-10-28T22:21:43.615Z,4.00
2022-10-28T22:25:45.155Z,4.80
2022-10-28T22:29:46.806Z,5.40
2022-10-28T22:33:48.395Z,4.97
2022-10-28T22:37:50.009Z,5.03
2022-10-28T22:41:51.532Z,5.22
2022-10-28T22:45:56.130Z,4.07
2022-10-28T22:49:57.676Z,4.35
2022-10-28T22:53:59.422Z,4.88
2022-10-28T22:58:00.951Z,5.03
2022-10-28T23:02:02.561Z,5.25
2022-10-28T23:06:04.876Z,4.63
2022-10-28T23:10:06.879Z,4.15
2022-10-28T23:14:08.450Z,5.60
2022-10-28T23:18:10.047Z,4.30
2022-10-28T23:22:11.614Z,4.18
2022-10-28T23:26:15.519Z,5.10
2022-10-28T23:30:17.165Z,4.97
2022-10-28T23:34:18.833Z,4.57
2022-10-28T23:38:20.557Z,5.68
2022-10-28T23:42:22.093Z,4.40
2022-10-28T23:46:25.032Z,4.55
2022-10-28T23:50:26.637Z,4.60
2022-10-28T23:54:28.420Z,4.47
2022-10-28T23:58:29.949Z,4.53
